Time;durP1;ratioP1;P1;durP2;ratioP2;P2;SDS_P1;SDS_P2;PMS_P1;PMS_P2;Temp;Humidity;BMP_temperature;BMP_pressure;BME280_temperature;BME280_humidity;BME280_pressure;Samples;Min_cycle;Max_cycle;Signal;HPM_P1;HPM_P2
2023/01/11 00:01:02;;;;;;;17.20;11.13;;;8.40;99.90;;;;;;4970391;28;20050;-80
2023/01/11 00:03:28;;;;;;;20.67;12.30;;;8.40;99.90;;;;;;4959963;28;20050;-81
2023/01/11 00:05:56;;;;;;;16.50;10.75;;;8.40;99.90;;;;;;4975885;28;20408;-80
2023/01/11 00:08:23;;;;;;;15.60;10.43;;;8.40;99.90;;;;;;4988196;28;20152;-85
2023/01/11 00:10:49;;;;;;;19.88;11.85;;;8.50;99.90;;;;;;4943866;28;20368;-80
2023/01/11 00:13:15;;;;;;;19.33;11.35;;;8.50;99.90;;;;;;4990793;28;20076;-84
2023/01/11 00:15:41;;;;;;;18.50;11.45;;;8.50;99.90;;;;;;4968491;28;20054;-85
2023/01/11 00:18:08;;;;;;;16.95;11.38;;;8.60;99.90;;;;;;4960815;28;20503;-80
2023/01/11 00:20:33;;;;;;;14.93;10.45;;;8.50;99.90;;;;;;4977985;28;20137;-81
2023/01/11 00:22:59;;;;;;;19.77;12.02;;;8.60;99.90;;;;;;4995943;28;20132;-82
2023/01/11 00:25:25;;;;;;;18.88;10.82;;;8.60;99.90;;;;;;4991151;28;20062;-81
2023/01/11 00:27:52;;;;;;;19.10;11.23;;;8.60;99.90;;;;;;4970222;28;20129;-80
2023/01/11 00:30:18;;;;;;;18.05;11.15;;;8.60;99.90;;;;;;4966011;28;20047;-87
2023/01/11 00:32:44;;;;;;;16.08;10.68;;;8.60;99.90;;;;;;4988616;28;20543;-81
2023/01/11 00:35:09;;;;;;;16.92;10.35;;;8.70;99.90;;;;;;4972247;28;20054;-87
2023/01/11 00:37:35;;;;;;;18.17;11.20;;;8.60;99.90;;;;;;4975551;28;20867;-82
2023/01/11 00:40:01;;;;;;;17.10;11.35;;;8.70;99.90;;;;;;4978550;28;20047;-80
2023/01/11 00:47:59;;;;;;;18.10;10.57;;;8.70;99.90;;;;;;4986738;28;20061;-80
2023/01/11 00:50:30;;;;;;;17.83;10.25;;;8.70;99.90;;;;;;4991413;28;20116;-80
2023/01/11 00:52:57;;;;;;;18.38;10.95;;;8.80;99.90;;;;;;4968969;28;20054;-81
2023/01/11 00:55:24;;;;;;;19.77;11.73;;;8.80;99.90;;;;;;4985865;28;20054;-81
2023/01/11 00:57:50;;;;;;;16.83;10.85;;;8.80;99.90;;;;;;4973288;28;20408;-80
2023/01/11 01:00:17;;;;;;;16.40;10.52;;;8.90;99.90;;;;;;4975052;28;20042;-85
2023/01/11 01:02:43;;;;;;;17.45;10.35;;;8.90;99.90;;;;;;4958787;28;20054;-80
2023/01/11 01:05:09;;;;;;;18.58;11.13;;;8.90;99.90;;;;;;4990858;28;20054;-85
2023/01/11 01:07:35;;;;;;;15.55;9.40;;;8.90;99.90;;;;;;4991431;28;20488;-80
2023/01/11 01:10:01;;;;;;;17.10;11.13;;;8.90;99.90;;;;;;4989340;28;20129;-80
2023/01/11 01:15:11;;;;;;;19.10;11.80;;;9.00;99.90;;;;;;4993386;28;20381;-81
2023/01/11 01:17:37;;;;;;;14.60;10.00;;;9.00;99.90;;;;;;4986999;28;20057;-82
2023/01/11 01:20:03;;;;;;;23.98;12.27;;;9.00;99.90;;;;;;4978903;28;20121;-81
2023/01/11 01:22:28;;;;;;;20.45;11.27;;;9.00;99.90;;;;;;4974271;28;20475;-80
2023/01/11 01:24:54;;;;;;;18.27;10.80;;;9.00;99.90;;;;;;4983971;28;20046;-79
2023/01/11 01:27:20;;;;;;;17.70;11.18;;;9.00;99.90;;;;;;4983187;28;20100;-80
2023/01/11 01:29:46;;;;;;;16.98;10.60;;;9.00;99.90;;;;;;4979152;28;20042;-82
2023/01/11 01:32:11;;;;;;;21.33;10.95;;;9.00;99.90;;;;;;4996846;28;20052;-82
2023/01/11 01:34:37;;;;;;;16.83;10.43;;;9.10;99.90;;;;;;4962537;28;20054;-80
2023/01/11 01:37:07;;;;;;;18.58;11.10;;;9.10;99.90;;;;;;4948439;28;20049;-80
2023/01/11 01:39:33;;;;;;;18.80;10.52;;;9.10;99.90;;;;;;4995895;28;20053;-85
2023/01/11 01:41:59;;;;;;;13.50;9.68;;;9.10;99.90;;;;;;4979640;28;20488;-80
2023/01/11 01:44:46;;;;;;;17.15;9.63;;;9.10;99.90;;;;;;4964050;28;20053;-80
2023/01/11 01:47:13;;;;;;;14.88;10.13;;;9.20;99.90;;;;;;4991241;28;20061;-80
2023/01/11 01:49:41;;;;;;;14.93;9.52;;;9.30;99.90;;;;;;4996166;28;20046;-80
2023/01/11 01:52:07;;;;;;;16.35;10.23;;;9.30;99.90;;;;;;4997378;28;20129;-83
2023/01/11 01:54:38;;;;;;;15.05;8.95;;;9.40;99.90;;;;;;4978487;28;20046;-80
2023/01/11 01:57:12;;;;;;;11.85;8.15;;;9.40;99.90;;;;;;4995922;28;20130;-83
2023/01/11 01:59:37;;;;;;;9.98;6.18;;;9.40;99.90;;;;;;5000031;28;20049;-80
2023/01/11 02:02:03;;;;;;;11.60;8.00;;;9.50;99.90;;;;;;4983741;28;20057;-80
2023/01/11 02:04:29;;;;;;;10.82;8.38;;;9.50;99.90;;;;;;4964871;28;20142;-85
2023/01/11 02:07:11;;;;;;;12.13;8.20;;;9.50;99.90;;;;;;4989811;28;20076;-80
2023/01/11 02:09:55;;;;;;;16.40;9.68;;;9.60;99.90;;;;;;4986239;28;20061;-80
2023/01/11 02:12:24;;;;;;;13.45;8.48;;;9.60;99.90;;;;;;4993778;28;20101;-81
2023/01/11 02:14:52;;;;;;;13.88;8.95;;;9.60;99.90;;;;;;4998894;28;20048;-79
2023/01/11 02:17:18;;;;;;;11.85;8.20;;;9.60;99.90;;;;;;4998287;28;20084;-80
2023/01/11 02:19:52;;;;;;;13.93;8.38;;;9.60;99.90;;;;;;4999381;28;20069;-85
2023/01/11 02:22:33;;;;;;;11.90;7.65;;;9.70;99.90;;;;;;4996217;28;20053;-80
2023/01/11 02:25:27;;;;;;;11.07;8.15;;;9.70;99.90;;;;;;4995905;28;20041;-81
2023/01/11 02:28:07;;;;;;;15.77;9.07;;;9.70;99.90;;;;;;4985869;28;20138;-80
2023/01/11 02:31:01;;;;;;;12.23;8.30;;;9.70;99.90;;;;;;4991917;28;20050;-85
2023/01/11 02:33:45;;;;;;;10.43;7.47;;;9.80;99.90;;;;;;4980400;28;20113;-81
2023/01/11 02:36:37;;;;;;;11.45;7.15;;;9.80;99.90;;;;;;4991696;28;20050;-82
2023/01/11 02:39:21;;;;;;;9.88;6.95;;;9.80;99.90;;;;;;4997175;28;20084;-81
2023/01/11 02:45:11;;;;;;;11.90;7.45;;;9.80;99.90;;;;;;4996853;28;20176;-83
2023/01/11 02:47:58;;;;;;;9.30;6.63;;;9.90;99.90;;;;;;5005578;28;20061;-81
2023/01/11 02:51:02;;;;;;;13.40;7.20;;;9.90;99.90;;;;;;4978955;28;20508;-80
2023/01/11 02:53:55;;;;;;;13.40;7.32;;;9.90;99.90;;;;;;4985276;28;20046;-81
2023/01/11 02:56:26;;;;;;;9.43;6.53;;;9.90;99.90;;;;;;4994719;28;20508;-81
2023/01/11 02:58:54;;;;;;;7.70;5.95;;;9.90;99.90;;;;;;4968686;28;20107;-81
2023/01/11 03:01:21;;;;;;;7.75;5.65;;;10.00;99.90;;;;;;4980519;28;20045;-80
2023/01/11 03:03:48;;;;;;;9.55;6.43;;;9.90;99.90;;;;;;4979086;28;20065;-83
2023/01/11 03:06:27;;;;;;;10.48;6.53;;;10.00;99.90;;;;;;4995265;28;20547;-80
2023/01/11 03:08:58;;;;;;;9.77;6.40;;;10.00;99.90;;;;;;4979932;28;20081;-81
2023/01/11 03:14:40;;;;;;;8.90;6.45;;;10.00;99.90;;;;;;4997777;28;20058;-81
2023/01/11 03:17:44;;;;;;;8.45;6.00;;;10.00;99.90;;;;;;4993274;28;20080;-80
2023/01/11 03:20:34;;;;;;;8.70;5.07;;;10.00;99.90;;;;;;4964419;28;20493;-81
2023/01/11 03:23:00;;;;;;;7.30;5.18;;;10.10;99.90;;;;;;4984681;28;20504;-81
2023/01/11 03:25:32;;;;;;;7.35;5.18;;;10.00;99.90;;;;;;4982225;28;20136;-82
2023/01/11 03:28:11;;;;;;;6.65;5.00;;;10.10;99.90;;;;;;4980292;28;20046;-81
2023/01/11 03:30:49;;;;;;;7.43;5.10;;;10.00;99.90;;;;;;4993261;28;20140;-81
2023/01/11 03:33:39;;;;;;;7.35;5.20;;;10.10;99.90;;;;;;4970894;28;20045;-79
2023/01/11 03:36:20;;;;;;;6.95;4.32;;;10.10;99.90;;;;;;4978905;28;20073;-80
2023/01/11 03:39:08;;;;;;;5.50;3.08;;;10.10;99.90;;;;;;5001088;28;20129;-81
2023/01/11 03:41:37;;;;;;;5.18;3.50;;;10.10;99.90;;;;;;4998326;28;20046;-84
2023/01/11 03:44:06;;;;;;;5.25;3.50;;;10.10;99.90;;;;;;4975014;28;20108;-79
2023/01/11 03:46:42;;;;;;;5.30;3.28;;;10.10;99.90;;;;;;4977620;28;20104;-79
2023/01/11 03:49:13;;;;;;;5.57;3.45;;;10.10;99.90;;;;;;4976844;28;20046;-81
2023/01/11 03:51:44;;;;;;;3.80;2.55;;;10.10;99.90;;;;;;4983406;28;20054;-81
2023/01/11 03:54:14;;;;;;;6.72;3.25;;;10.10;99.90;;;;;;4976059;28;20077;-80
2023/01/11 03:57:16;;;;;;;5.75;3.10;;;10.20;99.90;;;;;;4990115;28;20054;-80
2023/01/11 03:59:42;;;;;;;3.67;2.63;;;10.20;99.90;;;;;;4988945;28;20053;-80
2023/01/11 04:02:20;;;;;;;4.90;3.13;;;10.20;99.90;;;;;;4994955;28;20049;-80
2023/01/11 04:04:47;;;;;;;3.75;2.58;;;10.20;99.90;;;;;;4986737;28;20053;-86
2023/01/11 04:07:13;;;;;;;3.10;2.45;;;10.20;99.90;;;;;;4988010;28;20046;-79
2023/01/11 04:09:41;;;;;;;3.50;2.03;;;10.20;99.90;;;;;;4963626;28;20052;-79
2023/01/11 04:12:07;;;;;;;3.75;2.20;;;10.20;99.90;;;;;;4995501;28;20045;-80
2023/01/11 04:14:33;;;;;;;4.18;2.55;;;10.20;99.90;;;;;;4961398;28;20518;-82
2023/01/11 04:16:59;;;;;;;3.33;1.95;;;10.20;99.90;;;;;;4965546;28;20046;-80
2023/01/11 04:19:24;;;;;;;2.38;1.70;;;10.20;99.90;;;;;;4973810;28;20058;-80
2023/01/11 04:21:50;;;;;;;2.40;1.67;;;10.20;99.90;;;;;;4973944;28;20034;-80
2023/01/11 04:24:17;;;;;;;6.50;2.00;;;10.30;99.90;;;;;;4979240;28;20041;-80
2023/01/11 04:26:43;;;;;;;2.40;1.58;;;10.30;99.90;;;;;;4972336;28;20042;-80
2023/01/11 04:29:09;;;;;;;4.38;2.10;;;10.30;99.90;;;;;;4984615;28;20046;-80
2023/01/11 04:31:34;;;;;;;6.50;2.05;;;10.30;99.90;;;;;;4972896;28;20042;-82
2023/01/11 04:34:00;;;;;;;5.82;2.42;;;10.30;99.90;;;;;;4995233;28;20041;-80
2023/01/11 04:36:27;;;;;;;5.95;2.95;;;10.40;99.90;;;;;;4958835;28;20131;-81
2023/01/11 04:38:53;;;;;;;12.27;3.83;;;10.40;99.90;;;;;;4972516;28;20454;-81
2023/01/11 04:44:03;;;;;;;8.02;4.75;;;10.50;99.90;;;;;;4986581;28;20077;-81
2023/01/11 04:46:29;;;;;;;16.08;5.95;;;10.50;99.90;;;;;;5008816;28;20100;-81
2023/01/11 04:48:55;;;;;;;17.05;5.90;;;10.50;99.90;;;;;;4977909;28;20385;-81
2023/01/11 04:51:21;;;;;;;14.65;6.03;;;10.50;99.90;;;;;;4995065;28;20058;-80
2023/01/11 04:53:48;;;;;;;18.75;6.20;;;10.50;99.90;;;;;;4969783;28;20077;-80
2023/01/11 04:56:14;;;;;;;17.27;5.95;;;10.60;99.90;;;;;;4993451;28;20045;-81
2023/01/11 04:58:40;;;;;;;14.65;4.95;;;10.60;99.90;;;;;;4994483;28;20076;-80
2023/01/11 05:01:15;;;;;;;20.60;5.35;;;10.60;99.90;;;;;;4992470;28;20125;-81
2023/01/11 05:03:41;;;;;;;16.95;5.25;;;10.60;99.90;;;;;;4976302;28;20086;-81
2023/01/11 05:06:07;;;;;;;25.27;4.72;;;10.60;99.90;;;;;;4968715;28;20135;-80
2023/01/11 05:08:34;;;;;;;19.98;4.80;;;10.60;99.90;;;;;;4994596;28;20049;-85
2023/01/11 05:11:03;;;;;;;23.65;5.63;;;10.60;99.90;;;;;;4959328;28;20120;-81
2023/01/11 05:13:41;;;;;;;26.15;5.82;;;10.60;99.90;;;;;;4990993;28;20054;-82
2023/01/11 05:16:12;;;;;;;20.92;5.40;;;10.60;99.90;;;;;;4960947;28;20108;-82
2023/01/11 05:18:41;;;;;;;25.88;5.88;;;10.60;99.90;;;;;;4993227;28;20034;-81
2023/01/11 05:21:09;;;;;;;20.15;6.30;;;10.50;99.90;;;;;;4977835;28;20404;-81
2023/01/11 05:23:35;;;;;;;26.45;5.63;;;10.50;99.90;;;;;;4981078;28;20570;-81
2023/01/11 05:26:17;;;;;;;30.38;6.30;;;10.50;99.90;;;;;;4991960;28;20049;-83
2023/01/11 05:28:44;;;;;;;37.22;6.88;;;10.50;99.90;;;;;;4982648;28;20060;-81
2023/01/11 05:31:10;;;;;;;26.30;5.28;;;10.40;99.90;;;;;;4976533;28;20042;-81
2023/01/11 05:33:36;;;;;;;34.78;6.00;;;10.40;99.90;;;;;;4991221;28;20707;-83
2023/01/11 05:36:04;;;;;;;28.13;5.53;;;10.40;99.90;;;;;;4980181;28;20038;-84
2023/01/11 05:38:30;;;;;;;29.70;4.70;;;10.30;99.90;;;;;;4987665;28;20573;-81
2023/01/11 05:40:57;;;;;;;30.35;4.93;;;10.30;99.90;;;;;;4963637;28;20046;-83
2023/01/11 05:43:24;;;;;;;20.10;4.55;;;10.30;99.90;;;;;;4996486;28;20104;-81
2023/01/11 05:45:50;;;;;;;25.13;4.78;;;10.20;99.90;;;;;;4976811;28;20140;-81
2023/01/11 05:48:16;;;;;;;27.65;5.10;;;10.20;99.90;;;;;;4989773;28;20136;-81
2023/01/11 05:50:42;;;;;;;32.30;5.20;;;10.20;99.90;;;;;;4955561;28;20046;-84
2023/01/11 05:53:08;;;;;;;29.55;5.78;;;10.20;99.90;;;;;;4975867;28;20039;-82
2023/01/11 05:55:33;;;;;;;25.77;4.13;;;10.10;99.90;;;;;;4989490;28;20077;-83
2023/01/11 05:57:59;;;;;;;30.80;4.70;;;10.10;99.90;;;;;;4969267;28;20043;-89
2023/01/11 06:00:25;;;;;;;31.88;5.22;;;10.10;99.90;;;;;;4935367;28;20050;-81
2023/01/11 06:02:50;;;;;;;33.25;5.07;;;10.10;99.90;;;;;;4969017;28;20043;-84
2023/01/11 06:05:16;;;;;;;27.48;4.85;;;10.10;99.90;;;;;;4953628;28;20065;-82
2023/01/11 06:07:42;;;;;;;38.70;6.05;;;10.00;99.90;;;;;;4973861;28;20089;-83
2023/01/11 06:10:08;;;;;;;35.22;5.72;;;10.00;99.90;;;;;;4971654;28;20047;-81
2023/01/11 06:12:34;;;;;;;28.17;4.55;;;10.00;99.90;;;;;;4955301;28;20396;-82
2023/01/11 06:15:00;;;;;;;27.40;5.00;;;10.00;99.90;;;;;;4943927;28;20053;-87
2023/01/11 06:17:25;;;;;;;32.17;4.95;;;10.00;99.90;;;;;;4945191;28;20072;-81
2023/01/11 06:19:51;;;;;;;37.80;5.35;;;10.00;99.90;;;;;;4939824;28;20050;-89
2023/01/11 06:22:17;;;;;;;32.72;5.40;;;10.00;99.90;;;;;;4965234;28;20061;-84
2023/01/11 06:24:42;;;;;;;35.70;5.43;;;10.10;99.90;;;;;;4960113;28;20038;-89
2023/01/11 06:27:08;;;;;;;32.83;6.38;;;10.00;99.90;;;;;;4930830;28;20500;-81
2023/01/11 06:29:34;;;;;;;35.72;4.80;;;10.00;99.90;;;;;;4945673;28;20362;-88
2023/01/11 06:31:59;;;;;;;35.67;5.53;;;10.00;99.90;;;;;;4965273;28;20042;-80
2023/01/11 06:34:25;;;;;;;38.53;6.97;;;10.00;99.90;;;;;;4957838;28;20046;-81
2023/01/11 06:36:51;;;;;;;35.85;5.25;;;10.00;99.90;;;;;;4944709;28;20053;-81
2023/01/11 06:39:16;;;;;;;40.70;5.88;;;10.00;99.90;;;;;;4944772;28;20050;-82
2023/01/11 06:41:42;;;;;;;32.15;5.32;;;9.90;99.90;;;;;;4973666;28;20046;-83
2023/01/11 06:44:08;;;;;;;29.75;4.55;;;9.90;99.90;;;;;;4976858;28;20049;-88
2023/01/11 06:46:33;;;;;;;29.50;4.38;;;9.90;99.90;;;;;;4958354;28;20054;-82
2023/01/11 06:49:01;;;;;;;33.33;4.68;;;9.80;99.90;;;;;;4965792;28;20070;-82
2023/01/11 06:51:26;;;;;;;40.22;5.13;;;9.80;99.90;;;;;;4957863;28;20048;-81
2023/01/11 06:53:54;;;;;;;27.52;4.30;;;9.80;99.90;;;;;;4942337;28;20050;-82
2023/01/11 06:56:20;;;;;;;26.08;3.78;;;9.70;99.90;;;;;;4966780;28;20085;-81
2023/01/11 06:58:46;;;;;;;28.73;4.38;;;9.70;99.90;;;;;;4943993;28;20078;-82
2023/01/11 07:01:12;;;;;;;32.45;4.38;;;9.50;99.90;;;;;;4973280;28;20042;-79
2023/01/11 07:03:40;;;;;;;19.33;3.72;;;9.50;99.90;;;;;;4960581;28;20446;-82
2023/01/11 07:06:06;;;;;;;28.88;4.18;;;9.50;99.90;;;;;;4974433;28;20054;-83
2023/01/11 07:08:32;;;;;;;28.27;4.05;;;9.40;99.90;;;;;;4976574;28;20515;-84
2023/01/11 07:10:57;;;;;;;19.25;3.88;;;9.40;99.90;;;;;;4961500;28;20104;-84
2023/01/11 07:13:23;;;;;;;37.47;4.57;;;9.40;99.90;;;;;;4954623;28;20143;-82
2023/01/11 07:15:49;;;;;;;36.58;4.25;;;9.40;99.90;;;;;;4969869;28;20074;-83
2023/01/11 07:18:16;;;;;;;27.85;4.18;;;9.50;99.90;;;;;;4953633;28;20053;-83
2023/01/11 07:20:42;;;;;;;30.13;5.05;;;9.50;99.90;;;;;;4942427;28;20050;-83
2023/01/11 07:23:11;;;;;;;31.33;4.32;;;9.40;99.90;;;;;;4976374;28;20500;-85
2023/01/11 07:25:37;;;;;;;28.52;3.80;;;9.40;99.90;;;;;;4948362;28;20161;-85
2023/01/11 07:28:05;;;;;;;33.17;4.15;;;9.30;99.90;;;;;;4976680;28;20042;-83
2023/01/11 07:30:36;;;;;;;29.55;3.97;;;9.30;99.90;;;;;;4966349;28;20050;-82
2023/01/11 07:33:05;;;;;;;38.35;5.22;;;9.30;99.90;;;;;;4971094;28;20054;-83
2023/01/11 07:35:31;;;;;;;31.92;4.45;;;9.30;99.90;;;;;;4944223;28;20050;-88
2023/01/11 07:37:56;;;;;;;31.55;5.05;;;9.30;99.90;;;;;;4987385;28;20050;-83
2023/01/11 07:40:22;;;;;;;33.38;5.10;;;9.30;99.90;;;;;;4957397;28;20051;-82
2023/01/11 07:43:10;;;;;;;40.33;5.15;;;9.30;99.90;;;;;;4959665;28;20038;-81
2023/01/11 07:45:38;;;;;;;29.10;5.03;;;9.30;99.90;;;;;;4969151;28;20514;-84
2023/01/11 07:48:06;;;;;;;33.17;4.13;;;9.40;99.90;;;;;;4970467;28;20093;-83
2023/01/11 07:50:32;;;;;;;34.58;3.95;;;9.40;99.90;;;;;;4973434;28;20120;-83
2023/01/11 07:52:57;;;;;;;36.25;5.10;;;9.30;99.90;;;;;;4967190;28;20078;-80
2023/01/11 07:55:26;;;;;;;30.48;4.65;;;9.40;99.90;;;;;;4943716;28;20062;-80
2023/01/11 07:57:56;;;;;;;27.13;4.32;;;9.40;99.90;;;;;;4971313;28;20057;-82
2023/01/11 08:00:23;;;;;;;30.00;4.05;;;9.40;99.90;;;;;;4975256;28;20042;-81
2023/01/11 08:02:51;;;;;;;37.75;4.32;;;9.40;99.90;;;;;;4980149;28;20038;-80
2023/01/11 08:05:18;;;;;;;27.63;4.07;;;9.40;99.90;;;;;;4958148;28;20756;-87
2023/01/11 08:07:44;;;;;;;33.80;5.00;;;9.40;99.90;;;;;;4959465;28;20057;-80
2023/01/11 08:10:10;;;;;;;28.00;4.53;;;9.40;99.90;;;;;;4955891;28;20038;-80
2023/01/11 08:15:31;;;;;;;31.10;5.25;;;9.40;99.90;;;;;;4970936;28;20048;-80
2023/01/11 08:17:57;;;;;;;22.50;5.00;;;9.40;99.90;;;;;;4942474;28;20089;-85
2023/01/11 08:20:28;;;;;;;20.40;3.75;;;9.30;99.90;;;;;;4958275;28;20046;-81
2023/01/11 08:22:54;;;;;;;26.60;3.90;;;9.30;99.90;;;;;;4941331;28;20526;-80
2023/01/11 08:25:21;;;;;;;23.40;4.15;;;9.30;99.90;;;;;;4960546;28;20085;-87
2023/01/11 08:27:47;;;;;;;23.27;3.65;;;9.10;99.90;;;;;;4969825;28;20050;-83
2023/01/11 08:30:13;;;;;;;16.75;2.65;;;9.00;99.90;;;;;;4920990;28;20101;-81
2023/01/11 08:32:39;;;;;;;21.45;3.40;;;8.80;99.90;;;;;;4976869;28;20377;-81
2023/01/11 08:35:05;;;;;;;18.65;2.90;;;8.80;99.90;;;;;;4947639;28;20049;-80
2023/01/11 08:37:30;;;;;;;19.50;2.00;;;8.60;99.90;;;;;;4942306;28;20046;-80
2023/01/11 08:39:57;;;;;;;19.90;3.63;;;8.50;99.90;;;;;;4941952;28;20052;-85
2023/01/11 08:42:23;;;;;;;18.98;3.58;;;8.40;99.90;;;;;;4939525;28;20133;-83
2023/01/11 08:44:48;;;;;;;17.00;3.58;;;8.30;99.90;;;;;;4942691;28;20125;-81
2023/01/11 08:47:14;;;;;;;17.25;3.28;;;8.20;99.90;;;;;;4956810;28;20126;-83
2023/01/11 08:49:41;;;;;;;24.05;4.10;;;8.10;99.90;;;;;;4941044;28;20500;-81
2023/01/11 08:52:11;;;;;;;21.83;5.10;;;8.10;99.90;;;;;;4955964;28;20061;-85
2023/01/11 08:54:37;;;;;;;16.45;2.40;;;8.00;99.90;;;;;;4957505;28;20491;-82
2023/01/11 08:57:03;;;;;;;18.33;3.42;;;8.00;99.90;;;;;;4977854;28;20047;-82
2023/01/11 08:59:28;;;;;;;16.70;3.42;;;8.00;99.90;;;;;;4952618;28;20042;-81
2023/01/11 09:01:54;;;;;;;10.43;2.45;;;8.00;99.90;;;;;;4973151;28;20042;-78
2023/01/11 09:04:20;;;;;;;12.07;2.95;;;8.00;99.90;;;;;;4974533;28;20042;-79
2023/01/11 09:06:45;;;;;;;16.48;2.90;;;8.00;99.90;;;;;;4972998;28;20053;-81
2023/01/11 09:09:11;;;;;;;11.25;2.20;;;8.00;99.90;;;;;;4970336;28;20064;-82
2023/01/11 09:12:01;;;;;;;14.38;1.85;;;8.10;99.90;;;;;;4984397;28;20057;-85
2023/01/11 09:14:27;;;;;;;13.88;2.05;;;8.10;99.90;;;;;;4973170;28;20705;-84
2023/01/11 09:16:54;;;;;;;16.77;2.03;;;8.10;99.90;;;;;;4972166;28;20042;-83
2023/01/11 09:19:20;;;;;;;21.95;2.40;;;8.10;99.90;;;;;;4976019;28;20400;-82
2023/01/11 09:21:46;;;;;;;16.13;3.72;;;8.10;99.90;;;;;;4973727;28;20053;-86
2023/01/11 09:24:13;;;;;;;13.00;3.50;;;8.10;99.90;;;;;;4974349;28;20043;-85
2023/01/11 09:26:40;;;;;;;17.55;4.55;;;8.00;99.90;;;;;;4968988;28;20085;-82
2023/01/11 09:29:06;;;;;;;14.18;3.13;;;8.00;99.90;;;;;;4974789;28;20443;-82
2023/01/11 09:31:32;;;;;;;14.60;2.20;;;7.90;99.90;;;;;;4971275;28;20058;-83
2023/01/11 09:33:57;;;;;;;12.23;2.22;;;7.80;99.90;;;;;;4956732;28;20034;-82
2023/01/11 09:36:25;;;;;;;17.35;3.10;;;7.90;99.90;;;;;;4955382;28;20047;-83
2023/01/11 09:38:51;;;;;;;16.48;3.03;;;7.80;99.90;;;;;;4985387;28;20117;-82
2023/01/11 09:41:45;;;;;;;16.10;2.40;;;7.80;99.90;;;;;;4974734;28;20082;-84
2023/01/11 09:44:22;;;;;;;14.38;2.50;;;7.80;99.90;;;;;;4963485;28;20365;-83
2023/01/11 09:46:54;;;;;;;14.93;2.78;;;7.80;99.90;;;;;;4956339;28;20129;-82
2023/01/11 09:49:39;;;;;;;15.73;2.90;;;7.80;99.90;;;;;;4991441;28;20078;-84
2023/01/11 09:52:31;;;;;;;18.83;2.40;;;7.80;99.90;;;;;;4978939;28;20050;-84
2023/01/11 09:54:58;;;;;;;16.58;2.45;;;7.80;99.90;;;;;;4975682;28;20563;-83
2023/01/11 09:57:33;;;;;;;17.92;2.83;;;7.90;99.90;;;;;;4990945;28;20085;-82
2023/01/11 10:00:13;;;;;;;11.50;2.85;;;7.90;99.90;;;;;;4994657;28;20046;-82
2023/01/11 10:03:05;;;;;;;16.58;3.33;;;8.00;99.90;;;;;;4987769;28;20492;-82
2023/01/11 10:05:48;;;;;;;15.68;3.03;;;8.00;99.90;;;;;;4959517;28;20062;-86
2023/01/11 10:08:30;;;;;;;15.63;3.80;;;8.00;99.90;;;;;;4977775;28;20050;-82
2023/01/11 10:11:34;;;;;;;16.70;3.80;;;8.20;99.90;;;;;;4986312;28;20058;-83
2023/01/11 10:14:25;;;;;;;12.38;3.97;;;8.20;99.90;;;;;;4987104;28;20381;-83
2023/01/11 10:17:00;;;;;;;15.32;2.97;;;8.30;99.90;;;;;;4994072;28;20046;-82
2023/01/11 10:19:48;;;;;;;14.07;2.83;;;8.20;99.90;;;;;;4993031;28;20137;-82
2023/01/11 10:22:21;;;;;;;18.23;2.65;;;8.30;99.90;;;;;;4983246;28;20035;-83
2023/01/11 10:25:22;;;;;;;16.67;2.60;;;8.30;99.90;;;;;;4971657;28;20046;-83
2023/01/11 10:27:59;;;;;;;10.30;2.30;;;8.40;99.90;;;;;;4975465;28;20445;-82
2023/01/11 10:36:12;;;;;;;19.40;3.15;;;8.80;99.90;;;;;;4989626;28;20065;-82
2023/01/11 10:42:01;;;;;;;24.02;3.08;;;8.90;99.90;;;;;;4959035;28;20051;-84
2023/01/11 10:44:36;;;;;;;16.95;3.55;;;9.00;99.90;;;;;;4970344;28;20050;-83
2023/01/11 10:47:06;;;;;;;26.92;4.20;;;9.00;99.90;;;;;;4983892;28;20436;-84
2023/01/11 10:49:42;;;;;;;15.27;3.33;;;8.90;99.90;;;;;;4955519;28;20046;-85
2023/01/11 10:52:33;;;;;;;23.15;3.72;;;9.00;99.90;;;;;;4982939;28;20050;-84
2023/01/11 10:55:01;;;;;;;15.23;3.10;;;8.90;99.90;;;;;;4977328;28;20507;-82
2023/01/11 10:57:54;;;;;;;21.20;3.47;;;8.90;99.90;;;;;;4959397;28;20059;-82
2023/01/11 11:00:53;;;;;;;20.55;3.72;;;8.80;99.90;;;;;;4977384;28;20085;-82
2023/01/11 11:03:36;;;;;;;23.88;3.67;;;8.70;99.90;;;;;;4976529;28;20055;-83
2023/01/11 11:06:19;;;;;;;16.88;2.70;;;8.70;99.90;;;;;;4987378;28;20047;-84
2023/01/11 11:09:18;;;;;;;15.57;2.65;;;8.80;99.90;;;;;;4991811;28;20050;-82
2023/01/11 11:12:08;;;;;;;12.38;3.20;;;8.80;99.90;;;;;;4985892;28;20054;-82
2023/01/11 11:15:06;;;;;;;13.75;2.45;;;8.90;99.90;;;;;;4991659;28;20181;-85
2023/01/11 11:17:38;;;;;;;16.10;2.80;;;8.90;99.90;;;;;;4990667;28;20057;-88
2023/01/11 11:20:28;;;;;;;16.17;3.42;;;9.00;99.90;;;;;;4971889;28;20043;-84
2023/01/11 11:22:55;;;;;;;13.93;2.78;;;9.10;99.90;;;;;;4974588;28;20408;-85
2023/01/11 11:25:36;;;;;;;24.13;3.35;;;9.10;99.90;;;;;;4975685;28;20050;-83
2023/01/11 11:28:01;;;;;;;18.80;3.40;;;9.00;99.90;;;;;;4962017;28;20061;-88
2023/01/11 11:30:40;;;;;;;20.95;3.47;;;9.00;99.90;;;;;;4972991;28;20046;-83
2023/01/11 11:33:23;;;;;;;15.50;2.78;;;9.20;99.90;;;;;;4974427;28;20073;-87
2023/01/11 11:36:03;;;;;;;18.90;2.95;;;9.30;99.90;;;;;;4967258;28;20480;-84
2023/01/11 11:38:32;;;;;;;11.75;2.60;;;9.20;99.90;;;;;;4974030;28;20558;-83
2023/01/11 11:41:12;;;;;;;13.77;2.50;;;9.10;99.90;;;;;;4990579;28;20404;-85
2023/01/11 11:43:39;;;;;;;15.30;2.35;;;9.00;99.90;;;;;;4990290;28;20133;-84
2023/01/11 11:46:26;;;;;;;19.17;4.68;;;8.90;99.90;;;;;;4978812;28;20167;-83
2023/01/11 11:49:17;;;;;;;16.08;4.35;;;8.80;99.90;;;;;;4955605;28;20061;-86
2023/01/11 11:51:45;;;;;;;17.55;2.80;;;8.90;99.90;;;;;;4965807;28;20077;-90
2023/01/11 11:54:19;;;;;;;19.25;3.13;;;9.00;99.90;;;;;;4943805;28;20106;-83
2023/01/11 11:56:46;;;;;;;22.08;3.30;;;9.10;99.90;;;;;;4982734;28;20157;-86
2023/01/11 11:59:16;;;;;;;16.85;4.25;;;9.20;99.90;;;;;;4960261;28;20856;-83
2023/01/11 12:01:45;;;;;;;19.70;2.80;;;9.30;99.90;;;;;;4992368;28;20546;-84
2023/01/11 12:04:31;;;;;;;27.25;4.05;;;9.30;99.90;;;;;;4989910;28;20054;-83
2023/01/11 12:07:14;;;;;;;15.23;2.90;;;9.40;99.90;;;;;;4992596;28;20149;-80
2023/01/11 12:09:45;;;;;;;15.07;2.70;;;9.40;99.90;;;;;;4993651;28;20124;-80
2023/01/11 12:12:20;;;;;;;20.98;2.83;;;9.40;99.90;;;;;;4981502;28;20046;-80
2023/01/11 12:15:15;;;;;;;15.52;3.15;;;9.30;99.90;;;;;;4971118;28;20058;-86
2023/01/11 12:17:41;;;;;;;19.33;3.28;;;9.30;99.90;;;;;;4963809;28;20054;-80
2023/01/11 12:20:29;;;;;;;19.15;3.53;;;9.30;99.90;;;;;;4978077;28;20253;-84
2023/01/11 12:23:13;;;;;;;15.25;2.90;;;9.30;99.90;;;;;;4987274;28;20051;-83
2023/01/11 12:25:50;;;;;;;20.05;2.88;;;9.50;99.90;;;;;;4974304;28;20124;-82
2023/01/11 12:28:34;;;;;;;19.65;2.75;;;9.60;99.90;;;;;;4968164;28;20057;-83
2023/01/11 12:31:27;;;;;;;19.05;3.63;;;9.60;99.90;;;;;;4985485;28;20047;-83
2023/01/11 12:34:33;;;;;;;22.30;4.05;;;9.50;99.90;;;;;;4970197;28;20054;-82
2023/01/11 12:37:30;;;;;;;15.15;2.40;;;9.60;99.90;;;;;;4971940;28;20100;-83
2023/01/11 12:40:08;;;;;;;17.10;2.83;;;9.60;99.90;;;;;;4974466;28;20042;-87
2023/01/11 12:42:45;;;;;;;13.60;2.38;;;9.50;99.90;;;;;;4975788;28;20042;-83
2023/01/11 12:45:18;;;;;;;17.10;3.45;;;9.50;99.90;;;;;;4976194;28;20054;-82
2023/01/11 12:48:09;;;;;;;20.23;2.92;;;9.50;99.90;;;;;;4979559;28;20045;-83
2023/01/11 12:51:05;;;;;;;18.52;3.08;;;9.60;99.90;;;;;;4985887;28;20130;-84
2023/01/11 12:54:00;;;;;;;21.80;2.60;;;9.60;99.90;;;;;;4972288;28;20057;-83
2023/01/11 12:56:50;;;;;;;22.90;3.95;;;9.70;99.90;;;;;;4961767;28;20055;-83
2023/01/11 13:00:00;;;;;;;18.13;2.40;;;9.70;99.90;;;;;;4975604;28;20055;-84
2023/01/11 13:02:37;;;;;;;16.40;3.28;;;9.70;99.90;;;;;;4932790;28;20082;-82
2023/01/11 13:05:37;;;;;;;19.00;2.85;;;9.70;99.90;;;;;;4974404;28;20052;-85
2023/01/11 13:08:13;;;;;;;22.58;3.50;;;9.50;99.90;;;;;;4976171;28;20095;-83
2023/01/11 13:10:57;;;;;;;20.08;3.38;;;9.40;99.90;;;;;;4972290;28;20064;-83
2023/01/11 13:13:49;;;;;;;19.42;3.40;;;9.30;99.90;;;;;;4987853;28;20288;-82
2023/01/11 13:16:24;;;;;;;14.98;2.65;;;9.30;99.90;;;;;;4978864;28;20078;-82
2023/01/11 13:18:58;;;;;;;18.40;3.25;;;9.40;99.90;;;;;;4985078;28;20129;-82
2023/01/11 13:21:43;;;;;;;24.35;3.75;;;9.50;99.90;;;;;;4991423;28;20069;-82
2023/01/11 13:24:16;;;;;;;22.75;3.60;;;9.60;99.90;;;;;;4987363;28;20131;-82
2023/01/11 13:26:46;;;;;;;20.52;3.13;;;9.70;99.90;;;;;;4985590;28;20520;-83
2023/01/11 13:29:23;;;;;;;22.92;3.25;;;9.60;99.90;;;;;;4991573;28;20130;-85
2023/01/11 13:31:50;;;;;;;14.07;2.80;;;9.50;99.90;;;;;;4975539;28;20038;-82
2023/01/11 13:34:26;;;;;;;26.60;3.85;;;9.50;99.90;;;;;;4959819;28;20058;-82
2023/01/11 13:37:19;;;;;;;23.02;3.70;;;9.40;99.90;;;;;;4991991;28;20511;-83
2023/01/11 13:39:53;;;;;;;20.60;3.53;;;9.30;99.90;;;;;;4992089;28;20089;-82